Time;durP1;ratioP1;P1;durP2;ratioP2;P2;SDS_P1;SDS_P2;PMS_P1;PMS_P2;Temp;Humidity;BMP_temperature;BMP_pressure;BME280_temperature;BME280_humidity;BME280_pressure;Samples;Min_cycle;Max_cycle;Signal;HPM_P1;HPM_P2
2022/08/30 00:02:59;;;;;;;3.90;2.50;;;16.80;94.60;;;17.69;90.71;98399.44;5084189;28;20491;-80
2022/08/30 00:05:29;;;;;;;4.70;2.53;;;16.70;94.70;;;17.66;91.13;98402.53;5083707;28;20524;-81
2022/08/30 00:08:06;;;;;;;9.90;3.57;;;16.70;94.70;;;17.66;90.55;98402.53;5082312;28;20472;-81
2022/08/30 00:10:35;;;;;;;7.43;3.27;;;16.70;94.60;;;17.54;91.64;98395.31;5084550;28;20467;-80
2022/08/30 00:13:06;;;;;;;12.17;3.10;;;16.60;95.00;;;17.47;92.61;98405.16;5084084;28;20490;-80
2022/08/30 00:15:35;;;;;;;7.13;3.43;;;16.60;95.00;;;17.41;92.58;98407.91;5086427;28;21022;-81
2022/08/30 00:18:05;;;;;;;7.23;3.30;;;16.60;94.90;;;17.43;92.58;98408.47;5084341;28;20491;-80
2022/08/30 00:20:36;;;;;;;11.53;3.33;;;16.60;94.90;;;17.42;93.03;98406.88;5086609;28;20474;-80
2022/08/30 00:23:07;;;;;;;4.80;2.93;;;16.50;95.00;;;17.33;93.41;98406.34;5082320;28;20476;-80
2022/08/30 00:25:35;;;;;;;6.87;2.80;;;16.40;95.00;;;17.28;93.69;98406.22;5085394;28;20487;-80
2022/08/30 00:28:04;;;;;;;4.47;3.00;;;16.40;95.10;;;17.27;94.08;98409.06;5084660;28;20456;-80
2022/08/30 00:30:33;;;;;;;8.70;3.03;;;16.40;95.30;;;17.31;93.79;98421.63;5081884;28;20488;-80
2022/08/30 00:33:03;;;;;;;5.83;2.80;;;16.40;95.30;;;17.35;93.67;98416.72;5083483;28;20531;-80
2022/08/30 00:35:31;;;;;;;9.40;3.03;;;16.40;95.20;;;17.28;94.22;98415.97;5084192;28;20512;-81
2022/08/30 00:38:01;;;;;;;10.27;3.30;;;16.30;95.30;;;17.21;94.59;98416.06;5082617;28;20460;-80
2022/08/30 00:40:33;;;;;;;4.93;3.20;;;16.20;95.40;;;17.10;95.35;98411.50;5082150;28;20473;-80
2022/08/30 00:43:04;;;;;;;15.70;3.17;;;16.20;95.50;;;17.07;95.65;98406.66;5081853;28;20463;-80
2022/08/30 00:45:37;;;;;;;11.53;3.37;;;16.20;95.50;;;17.06;95.89;98403.19;5083050;28;20484;-79
2022/08/30 00:48:07;;;;;;;9.40;2.70;;;16.10;95.60;;;17.10;95.25;98396.44;5080509;28;20463;-80
2022/08/30 00:50:42;;;;;;;4.67;3.17;;;16.20;95.30;;;17.14;94.40;98399.47;5083045;28;20475;-80
2022/08/30 00:53:20;;;;;;;5.43;3.03;;;16.30;95.20;;;16.97;95.73;98393.13;5081379;28;20556;-80
2022/08/30 00:55:50;;;;;;;6.13;3.40;;;16.20;95.30;;;16.96;96.24;98397.63;5080772;28;20463;-80
2022/08/30 00:58:25;;;;;;;7.27;3.00;;;16.10;95.80;;;16.98;95.83;98392.09;5082275;28;20459;-80
2022/08/30 01:00:57;;;;;;;8.23;3.50;;;16.10;95.50;;;17.02;95.51;98395.91;5081592;28;20533;-80
2022/08/30 01:03:27;;;;;;;4.93;2.83;;;16.00;95.50;;;16.93;96.10;98403.34;5082688;28;20462;-80
2022/08/30 01:05:58;;;;;;;7.87;3.37;;;16.00;95.70;;;16.94;96.39;98404.94;5082882;28;20455;-80
2022/08/30 01:08:27;;;;;;;5.67;2.90;;;16.00;95.60;;;16.89;96.05;98401.34;5081755;28;20949;-80
2022/08/30 01:10:59;;;;;;;7.13;2.67;;;16.00;95.60;;;16.83;96.78;98410.16;5082993;28;20554;-80
2022/08/30 01:13:28;;;;;;;3.27;2.63;;;15.90;95.60;;;16.72;97.72;98414.31;5082195;28;20495;-80
2022/08/30 01:15:59;;;;;;;11.57;3.10;;;15.90;95.90;;;16.71;97.57;98415.31;5083436;28;20549;-80
2022/08/30 01:18:31;;;;;;;5.60;2.70;;;15.90;95.60;;;16.69;97.90;98417.38;5081967;28;20458;-79
2022/08/30 01:21:11;;;;;;;4.40;2.63;;;15.80;95.90;;;16.74;97.40;98408.78;5082749;28;20464;-80
2022/08/30 01:23:46;;;;;;;6.80;2.80;;;15.80;95.80;;;16.80;97.35;98410.59;5082485;28;20520;-80
2022/08/30 01:26:17;;;;;;;8.10;3.47;;;15.80;95.80;;;16.79;97.09;98401.84;5083314;28;20455;-80
2022/08/30 01:28:55;;;;;;;3.70;2.37;;;15.80;95.70;;;16.72;97.47;98411.66;5081414;28;21023;-81
2022/08/30 01:31:24;;;;;;;3.97;2.73;;;15.80;95.80;;;16.64;97.55;98411.13;5082092;28;20520;-81
2022/08/30 01:33:53;;;;;;;6.83;3.43;;;15.70;95.90;;;16.58;98.98;98408.34;5083460;28;20494;-80
2022/08/30 01:36:25;;;;;;;4.83;2.90;;;15.70;96.00;;;16.55;99.35;98406.13;5082188;28;20524;-80
2022/08/30 01:38:58;;;;;;;9.17;2.40;;;15.60;96.10;;;16.52;99.72;98409.16;5083275;28;20923;-80
2022/08/30 01:41:32;;;;;;;4.10;2.23;;;15.60;96.20;;;16.44;100.00;98409.44;5083158;28;20463;-80
2022/08/30 01:44:04;;;;;;;4.10;3.00;;;15.60;96.20;;;16.42;100.00;98410.66;5081124;28;20524;-81
2022/08/30 01:46:39;;;;;;;7.70;3.27;;;15.50;96.10;;;16.47;100.00;98413.47;5080963;28;20971;-80
2022/08/30 01:49:14;;;;;;;7.00;2.83;;;15.50;96.50;;;16.54;99.38;98412.41;5082826;28;20467;-80
2022/08/30 01:51:44;;;;;;;7.37;3.20;;;15.60;96.10;;;16.57;99.28;98408.53;5082285;28;20474;-80
2022/08/30 01:54:15;;;;;;;4.53;2.30;;;15.60;96.20;;;16.57;98.90;98392.69;5080779;28;20502;-80
2022/08/30 01:56:44;;;;;;;6.63;2.77;;;15.60;96.10;;;16.50;99.13;98392.72;5085770;28;21015;-80
2022/08/30 01:59:13;;;;;;;4.33;2.63;;;15.50;96.00;;;16.50;98.83;98386.63;5084809;28;20467;-81
2022/08/30 02:01:42;;;;;;;4.57;2.50;;;15.60;96.10;;;16.53;98.93;98391.47;5084637;28;20462;-80
2022/08/30 02:04:13;;;;;;;4.33;2.70;;;15.50;96.10;;;16.53;98.73;98394.13;5085785;28;20463;-81
2022/08/30 02:06:43;;;;;;;4.60;3.13;;;15.60;96.10;;;16.49;98.42;98403.50;5086482;28;20570;-80
2022/08/30 02:09:13;;;;;;;5.83;2.50;;;15.60;95.90;;;16.45;98.65;98395.19;5085100;28;20516;-80
2022/08/30 02:11:44;;;;;;;4.70;2.53;;;15.50;95.90;;;16.38;98.56;98398.94;5085984;28;20505;-81
2022/08/30 02:14:13;;;;;;;9.30;3.00;;;15.50;95.90;;;16.43;98.98;98399.06;5083205;28;20495;-80
2022/08/30 02:16:42;;;;;;;7.03;2.80;;;15.50;96.10;;;16.42;98.75;98398.25;5086273;28;20545;-80
2022/08/30 02:19:12;;;;;;;4.63;2.67;;;15.40;96.00;;;16.32;99.15;98391.84;5085347;28;21064;-80
2022/08/30 02:21:42;;;;;;;20.13;3.60;;;15.30;96.10;;;16.29;99.80;98390.44;5086612;28;20993;-80
2022/08/30 02:24:10;;;;;;;4.93;2.60;;;15.30;96.30;;;16.23;99.42;98388.69;5087624;28;20818;-80
2022/08/30 02:26:39;;;;;;;8.27;2.70;;;15.40;96.00;;;16.17;100.00;98389.53;5084941;28;20443;-80
2022/08/30 02:29:09;;;;;;;9.60;2.60;;;15.30;96.30;;;16.17;100.00;98397.47;5087443;28;20479;-80
2022/08/30 02:31:38;;;;;;;5.23;3.20;;;15.30;96.30;;;16.21;99.91;98395.19;5085739;28;20518;-80
2022/08/30 02:34:07;;;;;;;5.30;3.00;;;15.30;96.10;;;16.21;99.71;98398.63;5085607;28;20495;-80
2022/08/30 02:36:38;;;;;;;4.03;2.40;;;15.30;96.10;;;16.21;99.97;98398.63;5085183;28;20555;-80
2022/08/30 02:39:07;;;;;;;7.30;2.63;;;15.30;96.20;;;16.24;99.83;98398.22;5086064;28;20471;-81
2022/08/30 02:41:37;;;;;;;5.77;2.50;;;15.30;96.20;;;16.26;99.17;98390.88;5083790;28;20575;-81
2022/08/30 02:44:07;;;;;;;3.93;2.40;;;15.30;96.10;;;16.10;99.92;98392.19;5086023;28;20459;-80
2022/08/30 02:46:38;;;;;;;5.47;2.50;;;15.20;96.10;;;16.04;100.00;98386.97;5085112;28;20463;-80
2022/08/30 02:49:08;;;;;;;5.10;2.67;;;15.20;96.10;;;16.13;99.84;98379.63;5084925;28;20548;-80
2022/08/30 02:51:57;;;;;;;4.00;2.57;;;15.20;96.10;;;16.11;99.94;98369.25;5084908;28;21045;-80
2022/08/30 02:54:27;;;;;;;3.80;2.80;;;15.20;96.20;;;16.00;100.00;98369.97;5062856;28;21016;-82
2022/08/30 02:56:56;;;;;;;6.57;3.10;;;15.10;96.20;;;16.05;99.76;98380.69;5084813;28;20459;-82
2022/08/30 02:59:25;;;;;;;8.47;2.80;;;15.20;96.10;;;16.00;100.00;98375.25;5083247;28;20550;-83
2022/08/30 03:01:56;;;;;;;4.40;2.93;;;15.10;96.20;;;16.05;100.00;98370.13;5083090;28;20503;-83
2022/08/30 03:04:25;;;;;;;6.07;2.87;;;15.10;96.20;;;16.06;100.00;98363.84;5086483;28;20467;-83
2022/08/30 03:07:13;;;;;;;4.63;2.50;;;15.10;96.30;;;16.04;99.84;98357.94;5083974;28;20463;-83
2022/08/30 03:09:43;;;;;;;5.87;2.83;;;15.10;96.20;;;16.06;100.00;98369.13;5092604;28;20458;-92
2022/08/30 03:12:12;;;;;;;5.03;2.73;;;15.00;96.30;;;16.02;99.59;98358.19;5084615;28;20556;-83
2022/08/30 03:14:42;;;;;;;9.30;2.80;;;15.10;96.20;;;15.98;99.66;98354.34;5086815;28;20492;-84
2022/08/30 03:17:12;;;;;;;5.33;2.90;;;15.10;96.30;;;15.99;99.95;98357.81;5085439;28;20943;-83
2022/08/30 03:19:44;;;;;;;5.40;2.80;;;15.10;96.30;;;16.01;99.92;98355.75;5083904;28;20468;-83
2022/08/30 03:22:14;;;;;;;8.20;2.90;;;15.10;96.20;;;16.02;99.73;98352.09;5084984;28;20467;-84
2022/08/30 03:24:44;;;;;;;3.53;2.50;;;15.00;96.20;;;16.05;99.33;98356.94;5086511;28;20463;-90
2022/08/30 03:27:12;;;;;;;5.60;3.10;;;15.10;96.20;;;16.00;99.11;98356.78;5038318;28;21137;-87
2022/08/30 03:29:42;;;;;;;3.70;2.80;;;15.00;96.10;;;15.98;98.99;98362.25;5088174;28;20505;-88
2022/08/30 03:32:13;;;;;;;4.03;3.10;;;15.10;96.00;;;15.96;99.22;98359.03;5084976;28;20462;-83
2022/08/30 03:34:43;;;;;;;3.93;2.30;;;15.00;96.10;;;15.92;98.71;98357.03;5086991;28;20506;-83
2022/08/30 03:37:11;;;;;;;7.70;2.50;;;15.00;95.90;;;15.88;98.82;98356.66;5086270;28;20447;-83
2022/08/30 03:39:41;;;;;;;6.87;2.77;;;15.00;95.90;;;15.88;99.28;98350.56;5085589;28;20459;-83
2022/08/30 03:42:10;;;;;;;5.87;2.87;;;14.90;96.10;;;15.88;99.55;98347.94;5084426;28;20510;-84
2022/08/30 03:44:39;;;;;;;3.87;2.50;;;14.90;96.20;;;15.83;99.03;98350.38;5082596;28;20463;-84
2022/08/30 03:47:10;;;;;;;6.00;2.40;;;15.00;96.00;;;15.77;99.42;98356.50;5085923;28;20458;-86
2022/08/30 03:49:40;;;;;;;6.30;3.10;;;14.90;96.10;;;15.78;100.00;98356.31;5087291;28;20463;-88
2022/08/30 03:52:09;;;;;;;8.77;2.80;;;14.80;96.30;;;15.80;100.00;98350.81;5083355;28;21029;-84
2022/08/30 03:54:39;;;;;;;13.37;5.10;;;14.80;96.30;;;15.77;99.77;98353.88;5084918;28;20503;-79
2022/08/30 03:57:08;;;;;;;6.20;2.67;;;14.90;96.30;;;15.74;100.00;98354.31;5087181;28;20463;-89
2022/08/30 03:59:47;;;;;;;4.57;2.77;;;14.80;96.20;;;15.76;100.00;98349.66;5083892;28;20462;-82
2022/08/30 04:02:17;;;;;;;4.93;2.97;;;14.80;96.30;;;15.74;99.93;98354.31;5083790;28;20443;-83
2022/08/30 04:04:48;;;;;;;4.07;2.40;;;14.70;96.20;;;15.74;100.00;98349.03;5088102;28;20458;-83
2022/08/30 04:07:17;;;;;;;5.00;2.60;;;14.70;96.40;;;15.73;100.00;98339.50;5086741;28;20452;-83
2022/08/30 04:09:47;;;;;;;3.57;2.17;;;14.70;96.40;;;15.71;99.99;98355.53;5085679;28;20443;-82
2022/08/30 04:12:16;;;;;;;4.63;2.40;;;14.70;96.30;;;15.71;100.00;98338.91;5087782;28;20542;-82
2022/08/30 04:14:51;;;;;;;10.60;3.43;;;14.70;96.30;;;15.69;100.00;98346.25;5070293;28;20502;-83
2022/08/30 04:17:22;;;;;;;5.73;3.53;;;14.70;96.30;;;15.60;100.00;98349.13;5087869;28;20475;-85
2022/08/30 04:19:52;;;;;;;4.80;2.37;;;14.70;96.40;;;15.62;100.00;98348.88;5085948;28;20496;-83
2022/08/30 04:22:21;;;;;;;6.80;2.23;;;14.70;96.40;;;15.63;100.00;98352.34;5085617;28;20493;-83
2022/08/30 04:24:51;;;;;;;4.13;2.80;;;14.70;96.50;;;15.64;100.00;98359.22;5086117;28;20463;-82
2022/08/30 04:27:20;;;;;;;8.17;2.80;;;14.70;96.50;;;15.59;100.00;98358.03;5087754;28;20447;-83
2022/08/30 04:29:50;;;;;;;3.43;2.47;;;14.60;96.40;;;15.55;100.00;98362.09;5066277;28;20471;-83
2022/08/30 04:32:19;;;;;;;4.37;2.97;;;14.60;96.40;;;15.55;100.00;98361.28;5083042;28;20463;-81
2022/08/30 04:34:48;;;;;;;4.47;2.90;;;14.60;96.60;;;15.50;100.00;98361.13;5084090;28;20523;-81
2022/08/30 04:37:18;;;;;;;5.23;2.83;;;14.50;96.40;;;15.35;100.00;98371.09;5084669;28;20895;-80
2022/08/30 04:39:49;;;;;;;8.07;3.30;;;14.50;96.40;;;15.31;100.00;98373.34;5084061;28;20463;-82
2022/08/30 04:42:18;;;;;;;4.83;2.73;;;14.40;96.60;;;15.27;100.00;98376.63;5087393;28;20471;-80
2022/08/30 04:44:49;;;;;;;4.77;3.03;;;14.40;96.70;;;15.21;100.00;98385.34;5088196;28;21048;-80
2022/08/30 04:47:19;;;;;;;5.30;3.13;;;14.40;96.60;;;15.13;100.00;98384.53;5088851;28;20530;-81
2022/08/30 04:49:48;;;;;;;5.37;2.80;;;14.40;96.70;;;15.13;100.00;98389.03;5085440;28;20493;-80
2022/08/30 04:52:18;;;;;;;4.00;2.60;;;14.30;96.70;;;15.06;100.00;98388.25;5085637;28;20487;-80
2022/08/30 04:54:47;;;;;;;4.90;2.70;;;14.30;96.80;;;14.96;100.00;98382.59;5088781;28;20548;-81
2022/08/30 04:57:16;;;;;;;8.53;3.00;;;14.30;96.60;;;14.98;100.00;98383.19;5085307;28;20447;-80
2022/08/30 04:59:46;;;;;;;7.73;2.80;;;14.20;97.00;;;15.03;100.00;98386.00;5087194;28;20489;-80
2022/08/30 05:02:15;;;;;;;5.50;2.67;;;14.30;96.80;;;14.94;100.00;98388.06;5085224;28;20479;-80
2022/08/30 05:07:29;;;;;;;6.10;2.63;;;14.10;97.10;;;15.01;100.00;98391.47;5086589;28;20508;-80
2022/08/30 05:09:58;;;;;;;7.27;2.90;;;14.10;97.30;;;14.97;100.00;98389.47;5085010;28;20948;-80
2022/08/30 05:12:28;;;;;;;9.13;2.37;;;14.20;97.00;;;14.99;100.00;98392.72;5085176;28;20451;-80
2022/08/30 05:14:57;;;;;;;3.60;2.60;;;14.20;97.20;;;14.93;100.00;98391.69;5084658;28;20490;-81
2022/08/30 05:17:26;;;;;;;5.40;3.13;;;14.10;97.10;;;14.95;100.00;98396.75;5085333;28;20951;-83
2022/08/30 05:19:55;;;;;;;5.70;2.40;;;14.10;97.20;;;14.98;100.00;98397.16;5085745;28;21043;-81
2022/08/30 05:22:23;;;;;;;7.10;2.60;;;14.10;97.40;;;14.94;100.00;98388.06;5084434;28;20540;-80
2022/08/30 05:24:54;;;;;;;8.43;2.80;;;14.10;97.50;;;14.99;100.00;98385.59;5088235;28;20482;-80
2022/08/30 05:27:23;;;;;;;7.47;2.70;;;14.10;97.40;;;15.05;100.00;98391.88;5085696;28;20463;-80
2022/08/30 05:29:52;;;;;;;5.70;2.80;;;14.10;97.50;;;15.06;100.00;98399.56;5085929;28;20494;-80
2022/08/30 05:32:20;;;;;;;5.33;2.67;;;14.10;97.60;;;15.03;100.00;98404.44;5092279;28;20455;-80
2022/08/30 05:34:50;;;;;;;4.47;2.60;;;14.20;97.30;;;15.07;100.00;98400.38;5090743;28;20499;-80
2022/08/30 05:37:19;;;;;;;7.20;2.53;;;14.20;97.50;;;15.13;100.00;98406.66;5091500;28;21008;-81
2022/08/30 05:39:49;;;;;;;4.60;2.87;;;14.10;97.50;;;15.13;100.00;98399.56;5091391;28;20451;-80
2022/08/30 05:42:21;;;;;;;5.93;3.50;;;14.30;97.30;;;15.16;100.00;98399.16;5091459;28;20494;-81
2022/08/30 05:44:52;;;;;;;3.77;2.80;;;14.30;97.30;;;15.18;100.00;98401.56;5089706;28;20502;-80
2022/08/30 05:47:21;;;;;;;6.40;2.67;;;14.30;97.30;;;15.18;100.00;98406.81;5090659;28;20446;-80
2022/08/30 05:49:51;;;;;;;4.10;2.80;;;14.30;97.40;;;15.20;100.00;98403.00;5090418;28;20863;-81
2022/08/30 05:52:20;;;;;;;4.60;2.50;;;14.40;97.30;;;15.22;100.00;98402.75;5091123;28;20451;-80
2022/08/30 05:54:54;;;;;;;4.40;2.70;;;14.50;97.30;;;15.24;100.00;98406.81;5090700;28;20455;-80
2022/08/30 05:57:25;;;;;;;3.50;2.37;;;14.50;97.20;;;15.25;100.00;98400.53;5090603;28;20484;-80
2022/08/30 05:59:54;;;;;;;3.57;2.40;;;14.50;97.30;;;15.28;100.00;98397.47;5088897;28;20481;-80
2022/08/30 06:02:22;;;;;;;5.10;2.47;;;14.50;97.50;;;15.34;100.00;98401.91;5088902;28;20443;-80
2022/08/30 06:04:51;;;;;;;6.30;2.90;;;14.50;97.50;;;15.39;100.00;98394.19;5090381;28;20470;-80
2022/08/30 06:07:19;;;;;;;6.90;2.83;;;14.50;97.40;;;15.44;100.00;98398.84;5089757;28;20551;-80
2022/08/30 06:09:50;;;;;;;6.07;2.63;;;14.60;97.40;;;15.50;100.00;98393.56;5089476;28;20454;-80
2022/08/30 06:12:19;;;;;;;3.50;2.93;;;14.70;97.30;;;15.57;100.00;98391.72;5090018;28;20475;-80
2022/08/30 06:14:49;;;;;;;5.03;2.93;;;14.70;97.30;;;15.67;100.00;98395.72;5088098;28;20463;-80
2022/08/30 06:17:20;;;;;;;3.60;2.10;;;14.80;97.20;;;15.73;100.00;98392.22;5088971;28;20451;-80
2022/08/30 06:19:49;;;;;;;3.97;2.30;;;14.80;97.10;;;15.81;100.00;98400.72;5088973;28;20941;-80
2022/08/30 06:22:18;;;;;;;4.13;2.80;;;14.90;97.10;;;15.88;100.00;98396.22;5090579;28;20463;-80
2022/08/30 06:24:47;;;;;;;3.10;2.30;;;15.00;97.30;;;15.97;100.00;98397.56;5088061;28;20455;-80
2022/08/30 06:27:25;;;;;;;6.43;2.73;;;15.10;97.40;;;16.04;100.00;98390.44;5089934;28;20551;-80
2022/08/30 06:29:56;;;;;;;3.73;2.33;;;15.20;97.30;;;16.08;100.00;98388.97;5088379;28;20827;-81
2022/08/30 06:32:25;;;;;;;5.57;2.50;;;15.30;97.30;;;16.16;100.00;98401.13;5090512;28;20472;-81
2022/08/30 06:34:53;;;;;;;6.27;2.57;;;15.30;97.30;;;16.24;100.00;98395.59;5071132;28;20439;-80
2022/08/30 06:37:23;;;;;;;6.00;3.07;;;15.30;97.10;;;16.30;100.00;98401.81;5087725;28;20458;-80
2022/08/30 06:39:58;;;;;;;7.43;2.40;;;15.40;97.20;;;16.36;100.00;98395.69;5088730;28;20443;-80
2022/08/30 06:42:30;;;;;;;4.63;2.60;;;15.50;97.10;;;16.43;100.00;98401.72;5087725;28;20570;-81
2022/08/30 06:45:03;;;;;;;5.30;3.30;;;15.60;96.90;;;16.50;100.00;98402.47;5089520;28;20489;-80
2022/08/30 06:47:39;;;;;;;5.00;2.73;;;15.60;96.90;;;16.55;100.00;98406.13;5089322;28;20444;-81
2022/08/30 06:50:13;;;;;;;6.33;2.30;;;15.70;96.80;;;16.60;100.00;98403.63;5089392;28;20474;-80
2022/08/30 06:52:45;;;;;;;4.23;2.23;;;15.80;96.60;;;16.68;100.00;98394.63;5088143;28;20446;-79
2022/08/30 06:55:16;;;;;;;11.47;2.90;;;15.80;96.60;;;16.75;100.00;98397.22;5089647;28;20452;-80
2022/08/30 06:57:46;;;;;;;6.90;4.00;;;15.90;96.70;;;16.81;100.00;98399.78;5089771;28;20532;-81
2022/08/30 07:00:17;;;;;;;9.63;2.93;;;16.00;96.70;;;16.89;100.00;98390.78;5088372;28;20873;-81
2022/08/30 07:02:46;;;;;;;5.93;2.70;;;16.10;96.60;;;16.94;100.00;98393.56;5089833;28;20501;-80
2022/08/30 07:05:16;;;;;;;4.00;2.20;;;16.10;96.50;;;17.01;99.42;98397.75;5088637;28;20451;-80
2022/08/30 07:07:46;;;;;;;4.87;2.30;;;16.20;96.40;;;17.09;99.34;98394.00;5089728;28;20455;-79
2022/08/30 07:10:16;;;;;;;10.90;2.80;;;16.30;96.30;;;17.17;98.78;98395.56;5088998;28;20446;-80
2022/08/30 07:12:44;;;;;;;4.73;2.10;;;16.40;96.30;;;17.25;98.03;98400.56;5089416;28;20459;-79
2022/08/30 07:15:19;;;;;;;12.40;2.37;;;16.50;96.00;;;17.34;98.30;98407.16;5087277;28;20532;-80
2022/08/30 07:20:33;;;;;;;4.70;2.13;;;16.60;96.40;;;17.51;98.39;98406.34;5088659;28;20435;-79
2022/08/30 07:23:09;;;;;;;5.43;2.13;;;16.70;96.30;;;17.60;97.00;98398.94;5088360;28;20505;-80
2022/08/30 07:25:40;;;;;;;5.67;2.23;;;16.80;96.10;;;17.69;96.39;98408.19;5088094;28;20451;-80
2022/08/30 07:28:10;;;;;;;6.63;2.97;;;16.90;95.90;;;17.79;95.44;98405.00;5086918;28;20463;-80
2022/08/30 07:30:42;;;;;;;23.53;4.30;;;17.00;95.70;;;17.87;94.79;98405.50;5088518;28;20455;-80
2022/08/30 07:33:10;;;;;;;10.30;2.63;;;17.00;95.40;;;17.97;93.40;98410.25;5087674;28;21610;-80
2022/08/30 07:35:39;;;;;;;7.87;2.60;;;17.20;95.30;;;18.06;92.34;98400.94;5086681;28;20789;-80
2022/08/30 07:38:12;;;;;;;3.60;2.10;;;17.30;95.00;;;18.12;90.77;98400.03;5088057;28;20493;-80
2022/08/30 07:40:41;;;;;;;6.63;2.30;;;17.40;94.90;;;18.20;87.97;98399.72;5088008;28;20486;-80
2022/08/30 07:43:10;;;;;;;5.10;2.40;;;17.50;94.10;;;18.30;87.88;98399.97;5087960;28;20441;-79
2022/08/30 07:45:40;;;;;;;5.03;2.50;;;17.60;94.20;;;18.38;86.87;98398.84;5087010;28;20499;-79
2022/08/30 07:48:12;;;;;;;3.70;2.30;;;17.70;94.10;;;18.46;85.49;98404.63;5086649;28;20439;-80
2022/08/30 07:50:46;;;;;;;7.47;2.60;;;17.80;93.80;;;18.54;85.33;98401.66;5086567;28;20518;-80
2022/08/30 07:53:14;;;;;;;9.43;2.87;;;17.80;93.70;;;18.64;84.21;98405.59;5086201;28;20459;-80
2022/08/30 07:55:43;;;;;;;5.40;2.27;;;17.90;93.30;;;18.72;83.67;98414.00;5087554;28;20467;-79
2022/08/30 07:58:11;;;;;;;5.73;2.17;;;18.00;93.50;;;18.77;82.85;98403.53;5087268;28;20513;-80
2022/08/30 08:00:42;;;;;;;7.90;2.73;;;18.10;93.00;;;18.85;82.27;98400.50;5086020;28;20533;-79
2022/08/30 08:03:11;;;;;;;3.03;2.10;;;18.20;93.20;;;18.92;80.39;98403.84;5087299;28;20482;-79
2022/08/30 08:05:42;;;;;;;5.10;2.80;;;18.30;92.60;;;19.01;80.06;98399.00;5085457;28;20483;-80
2022/08/30 08:08:12;;;;;;;5.73;2.90;;;18.40;92.60;;;19.08;80.28;98395.22;5085526;28;20890;-80
2022/08/30 08:10:42;;;;;;;5.03;3.07;;;18.50;92.80;;;19.16;80.17;98396.66;5085452;28;20444;-80
2022/08/30 08:13:11;;;;;;;7.13;2.53;;;18.50;92.70;;;19.23;79.38;98393.91;5087267;28;20475;-80
2022/08/30 08:15:42;;;;;;;11.70;2.30;;;18.60;92.60;;;19.29;79.69;98396.44;5086469;28;20444;-80
2022/08/30 08:18:11;;;;;;;7.23;2.57;;;18.60;92.60;;;19.35;79.50;98403.44;5085719;28;20517;-80
2022/08/30 08:20:41;;;;;;;6.00;2.33;;;18.70;92.70;;;19.41;79.32;98410.50;5086667;28;20460;-81
2022/08/30 08:23:09;;;;;;;6.77;2.90;;;18.70;92.60;;;19.48;78.84;98402.41;5086417;28;21259;-80
2022/08/30 08:25:41;;;;;;;4.93;2.27;;;18.80;92.60;;;19.54;78.46;98391.66;5086157;28;20460;-80
2022/08/30 08:28:10;;;;;;;12.37;2.90;;;18.90;92.40;;;19.61;77.26;98394.16;5086379;28;20513;-81
2022/08/30 08:30:41;;;;;;;3.27;2.37;;;19.00;92.20;;;19.67;77.67;98393.25;5086085;28;20450;-80
2022/08/30 08:33:16;;;;;;;15.03;3.13;;;19.10;92.30;;;19.75;77.17;98392.06;5086076;28;20524;-80
2022/08/30 08:35:45;;;;;;;4.57;2.17;;;19.10;92.30;;;19.80;76.19;98392.97;5087510;28;20452;-80
2022/08/30 08:38:14;;;;;;;4.77;1.87;;;19.10;91.80;;;19.86;74.91;98383.22;5085493;28;20499;-80
2022/08/30 08:41:00;;;;;;;8.93;2.80;;;19.30;91.70;;;19.95;74.70;98387.13;5086827;28;20930;-81
2022/08/30 08:43:34;;;;;;;3.23;2.17;;;19.30;91.60;;;20.02;74.50;98385.13;5087922;28;20505;-80
2022/08/30 08:46:14;;;;;;;4.30;2.10;;;19.40;91.70;;;20.08;74.13;98381.50;5086834;28;20440;-81
2022/08/30 08:48:49;;;;;;;12.73;2.60;;;19.50;91.50;;;20.15;73.40;98382.16;5088030;28;20454;-80
2022/08/30 08:54:31;;;;;;;5.40;2.57;;;19.60;91.60;;;20.29;72.56;98374.72;5086902;28;20494;-80
2022/08/30 08:57:00;;;;;;;7.67;2.30;;;19.70;91.20;;;20.33;72.87;98381.16;5087318;28;20482;-80
2022/08/30 08:59:30;;;;;;;10.20;2.60;;;19.70;91.50;;;20.39;72.78;98372.22;5087065;28;20443;-81
2022/08/30 09:02:15;;;;;;;5.93;2.40;;;19.70;91.20;;;20.45;72.53;98380.03;5087417;28;20462;-81
2022/08/30 09:04:44;;;;;;;3.67;2.00;;;19.70;91.20;;;20.52;71.44;98383.31;5085840;28;20513;-81
2022/08/30 09:07:21;;;;;;;11.70;2.70;;;19.90;91.00;;;20.57;70.47;98386.06;5085596;28;20471;-81
2022/08/30 09:09:51;;;;;;;8.70;2.80;;;19.90;90.60;;;20.64;70.10;98382.44;5088130;28;20474;-81
2022/08/30 09:12:20;;;;;;;5.60;2.73;;;19.90;90.60;;;20.71;69.64;98388.38;5085645;28;20964;-81
2022/08/30 09:14:54;;;;;;;7.53;2.37;;;20.00;90.70;;;20.78;69.56;98381.06;5086435;28;20462;-80
2022/08/30 09:17:24;;;;;;;4.53;2.40;;;20.20;90.80;;;20.84;69.71;98380.88;5087761;28;20513;-81
2022/08/30 09:20:01;;;;;;;7.70;2.10;;;20.20;90.80;;;20.93;68.66;98370.66;5084918;28;20512;-81
2022/08/30 09:22:36;;;;;;;5.20;2.97;;;20.30;90.50;;;21.01;68.17;98372.88;5085806;28;20500;-80
2022/08/30 09:25:23;;;;;;;5.40;2.00;;;20.50;90.50;;;21.10;67.54;98368.78;5083984;28;21031;-80
2022/08/30 09:27:54;;;;;;;3.90;2.17;;;20.50;90.30;;;21.19;66.47;98367.28;5085954;28;20878;-80
2022/08/30 09:30:26;;;;;;;5.40;2.63;;;20.70;90.10;;;21.32;64.53;98368.75;5085857;28;20451;-81
2022/08/30 09:33:00;;;;;;;5.53;2.50;;;20.90;88.90;;;21.42;65.07;98372.34;5085530;28;20540;-80
2022/08/30 09:35:37;;;;;;;6.03;2.77;;;20.90;89.20;;;21.50;64.82;98368.44;5085425;28;20780;-81
2022/08/30 09:38:09;;;;;;;13.37;2.90;;;21.00;89.40;;;21.58;63.15;98366.16;5085282;28;20506;-80
2022/08/30 09:40:44;;;;;;;7.23;2.53;;;21.00;88.60;;;21.69;61.98;98366.28;5084976;28;20439;-80
2022/08/30 09:43:23;;;;;;;6.23;2.43;;;21.20;88.00;;;21.79;61.14;98353.06;5085035;28;21205;-80
2022/08/30 09:46:09;;;;;;;3.83;2.63;;;21.30;87.40;;;21.90;61.44;98346.81;5086517;28;20500;-83
2022/08/30 09:48:46;;;;;;;10.60;2.33;;;21.40;87.90;;;22.01;60.40;98340.50;5084974;28;20470;-81
2022/08/30 09:51:47;;;;;;;4.40;2.13;;;21.60;86.80;;;22.14;59.97;98342.78;5085310;28;20450;-80
2022/08/30 09:54:26;;;;;;;6.07;2.57;;;21.70;86.70;;;22.22;59.37;98328.97;5085026;28;20513;-80
2022/08/30 09:57:11;;;;;;;4.23;2.10;;;21.80;86.60;;;22.34;59.31;98336.78;5085435;28;20467;-80
2022/08/30 09:59:51;;;;;;;5.10;2.40;;;21.90;86.30;;;22.43;58.48;98333.38;5085036;28;20564;-80
2022/08/30 10:03:12;;;;;;;4.97;2.93;;;22.00;86.00;;;22.53;58.82;98335.31;5086193;28;20492;-80
2022/08/30 10:05:57;;;;;;;5.17;2.63;;;22.00;86.40;;;22.61;58.63;98336.69;5084055;28;20526;-80
2022/08/30 10:08:42;;;;;;;6.03;2.80;;;22.10;86.40;;;22.71;57.77;98331.47;5085499;28;20469;-81
2022/08/30 10:11:24;;;;;;;9.70;2.47;;;22.30;85.50;;;22.76;57.84;98329.63;5085178;28;20490;-81
2022/08/30 10:14:31;;;;;;;7.77;2.73;;;22.30;85.40;;;22.83;57.37;98324.06;5083479;28;20456;-81
2022/08/30 10:17:12;;;;;;;7.30;2.63;;;22.30;85.50;;;22.88;58.12;98326.75;5085986;28;20455;-81
2022/08/30 10:20:02;;;;;;;4.07;2.30;;;22.40;86.00;;;22.91;57.64;98321.69;5089905;28;20451;-80
2022/08/30 10:22:38;;;;;;;5.63;2.20;;;22.40;85.90;;;22.97;57.12;98320.69;5086815;28;21010;-80
2022/08/30 10:25:16;;;;;;;5.60;2.70;;;22.50;85.30;;;23.03;57.24;98318.84;5089427;28;20836;-81
2022/08/30 10:27:52;;;;;;;4.80;2.60;;;22.50;85.30;;;23.10;57.18;98322.06;5089190;28;20524;-80
2022/08/30 10:30:22;;;;;;;3.93;2.70;;;22.60;85.50;;;23.16;57.31;98318.34;5088982;28;20519;-80
2022/08/30 10:33:00;;;;;;;6.03;2.60;;;22.70;85.50;;;23.20;56.93;98311.44;5090128;28;20504;-81
2022/08/30 10:35:36;;;;;;;4.57;2.33;;;22.70;85.20;;;23.24;56.79;98312.50;5089776;28;20451;-81
2022/08/30 10:38:18;;;;;;;6.90;2.63;;;22.70;85.50;;;23.29;56.37;98304.50;5087997;28;20533;-81
2022/08/30 10:41:13;;;;;;;3.60;2.73;;;22.80;85.10;;;23.35;56.54;98306.16;5089218;28;20466;-80
2022/08/30 10:43:53;;;;;;;9.77;2.97;;;22.80;85.30;;;23.42;56.50;98317.41;5089054;28;20455;-81
2022/08/30 10:46:32;;;;;;;11.60;3.03;;;22.90;85.40;;;23.52;55.43;98316.63;5089041;28;20439;-80